Impacts TAF Board
For situational awareness. Not to be used for flight planning purposes.
IDs:

KDLS - The Dalles Muni, OR, US

Issued at 0110 UTC 06 Dec 2019
Updated at 0113 UTC 06 Dec 2019
Potential Impact None Slight Moderate High
Time0053Z 06/02Z 06/03Z 06/04Z 06/05Z 06/06Z 06/07Z 06/08Z 06/09Z 06/10Z 06/11Z 06/12Z 06/13Z 06/14Z>>
Type OBS PRVL PRVL PRVL PRVL PRVL PRVL PRVL PRVL PRVL PRVL PRVL PRVL PRVL
VIS 8 >6 6 6 6 6 6 6 3 3 3 3 3 3
CIG 17 17 15 15 15 15 15 15 7 7 7 7 7 7
Cover BKN BKN OVC OVC OVC OVC OVC OVC OVC OVC OVC OVC OVC OVC
FltCat MVFR MVFR MVFR MVFR MVFR MVFR MVFR MVFR IFR IFR IFR IFR IFR IFR
WX -- -- BR BR BR BR BR BR BR BR BR BR BR BR
WDir 140 VRB VRB VRB VRB VRB VRB VRB VRB VRB VRB VRB VRB VRB
WSpd 4 3 3 3 3 3 3 3 2 2 2 2 2 2
WGst -- -- -- -- -- -- -- -- -- -- -- -- -- --
Raw TAF
KDLS 060110Z 0601/0624 VRB03KT P6SM BKN017
  FM060300 VRB03KT 6SM BR OVC015
  FM060900 VRB02KT 3SM BR OVC007
  FM061600 VRB04KT 5SM BR OVC012
  FM062000 09003KT P6SM SCT012 BKN200


Raw METAR
KDLS 060053Z AUTO 14004KT 8SM BKN017 03/01 A3015 RMK AO2 SLP211 T00280006
KDLS 052353Z AUTO 15003KT 7SM CLR 04/01 A3015 RMK AO2 SLP212 T00390006 10050 20033 53001
KDLS 052253Z AUTO 15003KT 7SM CLR 05/01 A3014 RMK AO2 SLP208 T00500011

METAR Board
Radar Display
Forecast Discussion
For situational awareness. Not to be used for flight planning purposes.